createdAt,value
2022-08-17T00:02:26.974Z,96.80
2022-08-17T00:04:55.608Z,96.90
2022-08-17T00:07:23.175Z,96.80
2022-08-17T00:09:50.383Z,96.80
2022-08-17T00:12:43.736Z,96.90
2022-08-17T00:15:08.799Z,96.80
2022-08-17T00:17:37.869Z,96.90
2022-08-17T00:20:05.601Z,96.90
2022-08-17T00:22:36.382Z,96.90
2022-08-17T00:25:17.877Z,97.00
2022-08-17T00:27:44.706Z,97.40
2022-08-17T00:30:13.129Z,97.10
2022-08-17T00:33:22.800Z,97.20
2022-08-17T00:35:30.999Z,97.10
2022-08-17T00:37:57.809Z,97.20
2022-08-17T00:40:24.928Z,97.20
2022-08-17T00:42:53.414Z,97.30
2022-08-17T00:45:20.626Z,97.30
2022-08-17T00:47:47.984Z,97.20
2022-08-17T00:50:17.927Z,97.30
2022-08-17T00:52:54.945Z,97.30
2022-08-17T00:55:24.107Z,97.40
2022-08-17T00:57:55.854Z,97.30
2022-08-17T01:00:43.939Z,97.00
2022-08-17T01:03:15.589Z,97.40
2022-08-17T01:05:43.055Z,97.50
2022-08-17T01:08:16.539Z,97.40
2022-08-17T01:10:57.405Z,97.40
2022-08-17T01:13:30.852Z,97.40
2022-08-17T01:16:09.513Z,97.50
2022-08-17T01:18:37.206Z,97.40
2022-08-17T01:21:19.463Z,97.50
2022-08-17T01:23:46.412Z,97.50
2022-08-17T01:26:13.312Z,97.50
2022-08-17T01:28:54.309Z,97.50
2022-08-17T01:31:24.693Z,97.60
2022-08-17T01:33:51.720Z,97.60
2022-08-17T01:36:18.654Z,97.60
2022-08-17T01:38:45.627Z,97.60
2022-08-17T01:41:16.485Z,97.50
2022-08-17T01:43:49.066Z,97.60
2022-08-17T01:46:27.277Z,97.60
2022-08-17T01:48:56.294Z,97.60
2022-08-17T01:51:25.973Z,97.60
2022-08-17T01:53:57.414Z,97.70
2022-08-17T01:56:25.635Z,97.70
2022-08-17T01:58:52.935Z,97.70
2022-08-17T02:01:22.586Z,96.80
2022-08-17T02:03:59.102Z,97.70
2022-08-17T02:06:30.052Z,97.80
2022-08-17T02:09:02.518Z,97.90
2022-08-17T02:11:33.246Z,97.80
2022-08-17T02:14:03.114Z,98.10
2022-08-17T02:16:37.662Z,97.80
2022-08-17T02:19:11.176Z,97.80
2022-08-17T02:21:39.678Z,97.80
2022-08-17T02:24:10.868Z,97.80
2022-08-17T02:26:37.862Z,97.80
2022-08-17T02:29:04.910Z,97.80
2022-08-17T02:31:32.159Z,97.90
2022-08-17T02:34:03.439Z,97.90
2022-08-17T02:36:31.182Z,98.00
2022-08-17T02:38:58.749Z,97.90
2022-08-17T02:41:25.711Z,97.90
2022-08-17T02:43:53.693Z,97.90
2022-08-17T02:46:20.851Z,97.90
2022-08-17T02:48:47.625Z,97.90
2022-08-17T02:51:14.786Z,97.90
2022-08-17T02:53:41.610Z,97.90
2022-08-17T02:56:08.478Z,97.90
2022-08-17T02:58:36.155Z,98.00
2022-08-17T03:01:08.698Z,98.00
2022-08-17T03:03:36.818Z,98.00
2022-08-17T03:06:04.299Z,98.00
2022-08-17T03:08:31.321Z,98.10
2022-08-17T03:10:58.212Z,98.00
2022-08-17T03:13:25.501Z,98.10
2022-08-17T03:15:52.287Z,98.10
2022-08-17T03:18:25.532Z,98.10
2022-08-17T03:20:58.684Z,98.10
2022-08-17T03:23:27.400Z,98.00
2022-08-17T03:25:54.742Z,98.00
2022-08-17T03:28:22.370Z,98.00
2022-08-17T03:30:51.061Z,97.90
2022-08-17T03:33:18.396Z,97.90
2022-08-17T03:35:45.317Z,97.90
2022-08-17T03:38:15.139Z,97.90
2022-08-17T03:40:56.438Z,98.00
2022-08-17T03:43:28.997Z,98.00
2022-08-17T03:46:28.611Z,98.00
2022-08-17T03:49:20.148Z,97.90
2022-08-17T03:52:05.846Z,98.00
2022-08-17T03:54:51.517Z,98.00
2022-08-17T03:57:19.179Z,98.10
2022-08-17T03:59:46.562Z,98.20
2022-08-17T04:02:22.073Z,98.10
2022-08-17T04:04:50.982Z,98.20
2022-08-17T04:07:20.902Z,98.20
2022-08-17T04:09:47.982Z,98.30
2022-08-17T04:12:16.859Z,98.30
2022-08-17T04:14:52.909Z,98.40
2022-08-17T04:17:26.998Z,98.50
2022-08-17T04:19:55.052Z,98.50
2022-08-17T04:22:33.264Z,98.50
2022-08-17T04:25:06.713Z,98.50
2022-08-17T04:27:33.579Z,98.60
2022-08-17T04:30:01.115Z,98.70
2022-08-17T04:32:59.462Z,98.70
2022-08-17T04:35:22.734Z,98.80
2022-08-17T04:37:49.967Z,98.70
2022-08-17T04:40:37.309Z,98.70
2022-08-17T04:43:13.144Z,98.70
2022-08-17T04:45:55.252Z,98.70
2022-08-17T04:48:33.358Z,98.70
2022-08-17T04:51:10.025Z,98.80
2022-08-17T04:53:38.305Z,98.70
2022-08-17T04:56:05.395Z,98.60
2022-08-17T04:58:32.371Z,98.60
2022-08-17T05:00:59.476Z,98.60
2022-08-17T05:03:26.339Z,98.50
2022-08-17T05:05:53.743Z,98.60
2022-08-17T05:08:21.011Z,98.60
2022-08-17T05:10:48.852Z,98.60
2022-08-17T05:13:19.506Z,98.50
2022-08-17T05:15:52.908Z,98.50
2022-08-17T05:18:19.774Z,98.60
2022-08-17T05:20:46.737Z,98.50
2022-08-17T05:23:16.306Z,98.50
2022-08-17T05:25:47.714Z,98.40
2022-08-17T05:28:17.158Z,98.30
2022-08-17T05:30:46.278Z,98.30
2022-08-17T05:33:19.738Z,98.20
2022-08-17T05:35:49.050Z,98.30
2022-08-17T05:38:19.442Z,98.40
2022-08-17T05:40:47.295Z,98.40
2022-08-17T05:43:23.380Z,98.50
2022-08-17T05:46:23.484Z,98.50
2022-08-17T05:48:54.085Z,98.40
2022-08-17T05:51:43.980Z,98.40
2022-08-17T05:54:44.182Z,98.30
2022-08-17T05:57:42.389Z,98.40
2022-08-17T06:00:48.776Z,98.30
2022-08-17T06:03:37.593Z,98.30
2022-08-17T06:06:46.932Z,98.20
2022-08-17T06:09:25.436Z,98.10
2022-08-17T06:12:21.568Z,98.00
2022-08-17T06:15:03.593Z,97.90
2022-08-17T06:17:31.192Z,97.90
2022-08-17T06:20:03.145Z,97.90
2022-08-17T06:22:37.810Z,97.90
2022-08-17T06:25:26.016Z,97.90
2022-08-17T06:28:20.421Z,97.90
2022-08-17T06:30:58.571Z,97.90
2022-08-17T06:33:34.453Z,97.70
2022-08-17T06:36:17.587Z,97.60
2022-08-17T06:39:01.663Z,97.40
2022-08-17T06:41:49.490Z,97.20
2022-08-17T06:44:49.681Z,97.20
2022-08-17T06:47:42.764Z,97.10
2022-08-17T06:50:27.610Z,96.90
2022-08-17T06:53:00.885Z,96.70
2022-08-17T06:55:38.305Z,96.70
2022-08-17T06:58:16.219Z,96.70
2022-08-17T07:00:47.682Z,96.80
2022-08-17T07:03:29.548Z,96.80
2022-08-17T07:06:05.209Z,96.80
2022-08-17T07:08:59.269Z,96.80
2022-08-17T07:11:44.026Z,96.80
2022-08-17T07:14:23.692Z,96.80
2022-08-17T07:16:56.249Z,96.70
2022-08-17T07:19:31.668Z,96.40
2022-08-17T07:22:26.279Z,96.20
2022-08-17T07:24:59.017Z,96.00
2022-08-17T07:27:31.878Z,95.70
2022-08-17T07:30:29.172Z,95.40
2022-08-17T07:33:13.480Z,95.30
2022-08-17T07:35:44.662Z,95.10
2022-08-17T07:38:24.857Z,94.90
2022-08-17T07:41:03.447Z,94.80
2022-08-17T07:43:39.450Z,94.50
2022-08-17T07:46:54.126Z,94.50
2022-08-17T07:49:37.249Z,93.80
2022-08-17T07:52:50.875Z,93.90
2022-08-17T07:55:37.342Z,94.10
2022-08-17T07:58:04.447Z,94.00
2022-08-17T08:00:33.595Z,93.90
2022-08-17T08:03:15.183Z,93.80
2022-08-17T08:05:51.735Z,93.70
2022-08-17T08:08:19.016Z,93.60
2022-08-17T08:11:07.329Z,93.50
2022-08-17T08:13:42.486Z,93.40
2022-08-17T08:16:36.780Z,93.20
2022-08-17T08:19:05.344Z,93.10
2022-08-17T08:21:51.519Z,93.00
2022-08-17T08:24:24.417Z,92.90
2022-08-17T08:27:27.484Z,92.80
2022-08-17T08:30:00.833Z,92.80
2022-08-17T08:32:46.578Z,93.10
2022-08-17T08:35:26.751Z,92.80
2022-08-17T08:38:07.672Z,93.20
2022-08-17T08:41:16.532Z,93.40
2022-08-17T08:44:07.945Z,92.90
2022-08-17T08:46:57.771Z,92.90
2022-08-17T08:50:02.150Z,95.10
2022-08-17T08:52:40.396Z,95.10
2022-08-17T08:55:28.210Z,93.70
2022-08-17T08:58:04.940Z,93.90
2022-08-17T09:00:38.399Z,94.90
2022-08-17T09:03:20.541Z,94.20
2022-08-17T09:06:04.625Z,93.00
2022-08-17T09:08:43.791Z,94.20
2022-08-17T09:11:32.102Z,95.00
2022-08-17T09:14:21.790Z,94.20
2022-08-17T09:17:22.083Z,95.50
2022-08-17T09:19:55.512Z,96.60
2022-08-17T09:22:31.616Z,96.40
2022-08-17T09:25:06.991Z,96.00
2022-08-17T09:28:01.408Z,94.20
2022-08-17T09:30:37.792Z,93.30
2022-08-17T09:33:08.892Z,93.30
2022-08-17T09:35:48.209Z,93.20
2022-08-17T09:38:21.655Z,93.20
2022-08-17T09:41:11.484Z,93.10
2022-08-17T09:43:43.896Z,93.00
2022-08-17T09:46:27.146Z,93.10
2022-08-17T09:49:07.580Z,93.10
2022-08-17T09:52:06.068Z,93.30
2022-08-17T09:54:38.995Z,93.30
2022-08-17T09:57:28.644Z,93.30
2022-08-17T10:00:12.418Z,93.30
2022-08-17T10:02:50.957Z,93.10
2022-08-17T10:05:46.548Z,93.10
2022-08-17T10:08:32.187Z,93.10
2022-08-17T10:11:46.008Z,93.30
2022-08-17T10:14:55.625Z,93.50
2022-08-17T10:17:33.210Z,93.60
2022-08-17T10:20:31.028Z,93.60
2022-08-17T10:23:25.948Z,93.60
2022-08-17T10:26:23.200Z,93.70
2022-08-17T10:29:11.585Z,93.70
2022-08-17T10:31:50.479Z,93.60
2022-08-17T10:34:29.355Z,93.70
2022-08-17T10:37:19.732Z,93.50
2022-08-17T10:40:10.063Z,93.30
2022-08-17T10:42:59.275Z,92.80
2022-08-17T10:45:45.189Z,91.90
2022-08-17T10:48:14.113Z,91.50
2022-08-17T10:51:06.111Z,91.70
2022-08-17T10:53:32.884Z,92.00
2022-08-17T10:56:14.897Z,92.00
2022-08-17T10:58:57.180Z,91.70
2022-08-17T11:01:33.881Z,91.90
2022-08-17T11:04:18.526Z,92.40
2022-08-17T11:07:02.185Z,92.70
2022-08-17T11:09:47.806Z,92.80
2022-08-17T11:12:45.022Z,92.50
2022-08-17T11:15:23.842Z,93.30
2022-08-17T11:18:05.697Z,93.70
2022-08-17T11:20:44.915Z,94.40
2022-08-17T11:23:19.906Z,92.80
2022-08-17T11:25:54.264Z,92.90
2022-08-17T11:28:34.511Z,93.00
2022-08-17T11:31:09.715Z,93.20
2022-08-17T11:33:45.481Z,93.30
2022-08-17T11:36:34.151Z,93.30
2022-08-17T11:39:04.476Z,93.30
2022-08-17T11:41:47.257Z,93.50
2022-08-17T11:44:20.087Z,93.60
2022-08-17T11:47:41.815Z,93.80
2022-08-17T11:50:50.110Z,93.80
2022-08-17T11:53:38.811Z,94.00
2022-08-17T11:56:28.816Z,94.10
2022-08-17T11:58:56.373Z,94.10
2022-08-17T12:01:23.204Z,94.10
2022-08-17T12:04:29.182Z,94.20
2022-08-17T12:07:20.696Z,94.30
2022-08-17T12:09:50.499Z,94.50
2022-08-17T12:12:22.632Z,94.50
2022-08-17T12:15:12.899Z,94.50
2022-08-17T12:17:43.035Z,94.60
2022-08-17T12:20:21.946Z,94.40
2022-08-17T12:23:03.961Z,94.30
2022-08-17T12:25:39.105Z,94.30
2022-08-17T12:28:27.359Z,94.30
2022-08-17T12:30:56.951Z,94.30
2022-08-17T12:33:28.540Z,94.20
2022-08-17T12:36:04.998Z,93.90
2022-08-17T12:38:37.058Z,93.50
2022-08-17T12:41:25.472Z,93.30
2022-08-17T12:44:00.502Z,93.40
2022-08-17T12:46:28.354Z,93.40
2022-08-17T12:49:15.238Z,93.30
2022-08-17T12:51:46.804Z,92.20
2022-08-17T12:54:28.150Z,92.30
2022-08-17T12:56:55.754Z,92.20
2022-08-17T12:59:29.787Z,91.40
2022-08-17T13:01:57.927Z,92.20
2022-08-17T13:04:26.611Z,91.20
2022-08-17T13:06:59.956Z,90.90
2022-08-17T13:09:33.539Z,90.80
2022-08-17T13:12:04.981Z,90.70
2022-08-17T13:14:33.387Z,91.10
2022-08-17T13:17:08.385Z,90.50
2022-08-17T13:19:49.741Z,90.40
2022-08-17T13:22:22.460Z,90.50
2022-08-17T13:25:00.848Z,90.00
2022-08-17T13:27:29.551Z,90.40
2022-08-17T13:30:05.607Z,90.70
2022-08-17T13:32:44.123Z,90.90
2022-08-17T13:35:40.071Z,90.60
2022-08-17T13:38:14.502Z,89.20
2022-08-17T13:40:52.744Z,90.20
2022-08-17T13:43:44.552Z,90.20
2022-08-17T13:46:23.987Z,90.00
2022-08-17T13:49:19.339Z,90.20
2022-08-17T13:51:49.517Z,90.50
2022-08-17T13:54:27.441Z,90.50
2022-08-17T13:56:56.361Z,90.30
2022-08-17T13:59:53.422Z,89.70
2022-08-17T14:02:22.586Z,89.20
2022-08-17T14:04:53.528Z,90.30
2022-08-17T14:07:25.683Z,90.20
2022-08-17T14:10:00.250Z,88.90
2022-08-17T14:12:30.423Z,90.00
2022-08-17T14:14:58.521Z,89.60
2022-08-17T14:17:28.867Z,90.00
2022-08-17T14:19:55.799Z,90.00
2022-08-17T14:22:33.155Z,89.80
2022-08-17T14:25:01.982Z,90.20
2022-08-17T14:27:33.621Z,90.10
2022-08-17T14:30:10.823Z,89.50
2022-08-17T14:32:38.935Z,89.60
2022-08-17T14:35:08.145Z,89.60
2022-08-17T14:37:36.576Z,88.50
2022-08-17T14:40:08.333Z,87.80
2022-08-17T14:42:37.003Z,87.90
2022-08-17T14:45:06.929Z,88.50
2022-08-17T14:47:53.791Z,88.50
2022-08-17T14:50:22.883Z,88.80
2022-08-17T14:52:50.962Z,88.50
2022-08-17T14:55:18.823Z,88.60
2022-08-17T14:57:45.836Z,88.20
2022-08-17T15:00:13.267Z,88.50
2022-08-17T15:02:53.825Z,88.70
2022-08-17T15:05:23.548Z,89.00
2022-08-17T15:07:51.663Z,89.80
2022-08-17T15:10:19.034Z,89.70
2022-08-17T15:12:46.476Z,89.30
2022-08-17T15:15:16.196Z,90.00
2022-08-17T15:17:46.065Z,89.40
2022-08-17T15:20:16.603Z,90.00
2022-08-17T15:22:44.759Z,89.80
2022-08-17T15:25:12.737Z,89.40
2022-08-17T15:27:40.503Z,89.40
2022-08-17T15:30:09.419Z,89.60
2022-08-17T15:32:45.823Z,89.50
2022-08-17T15:35:19.519Z,88.50
2022-08-17T15:37:54.701Z,88.50
2022-08-17T15:40:21.497Z,88.50
2022-08-17T15:42:48.474Z,88.90
2022-08-17T15:45:21.254Z,89.30
2022-08-17T15:47:48.175Z,88.80
2022-08-17T15:50:14.894Z,89.30
2022-08-17T15:52:43.276Z,88.90
2022-08-17T15:55:13.203Z,88.40
2022-08-17T15:57:40.629Z,88.40
2022-08-17T16:00:09.552Z,88.10
2022-08-17T16:03:46.346Z,88.10
2022-08-17T16:05:30.223Z,88.10
2022-08-17T16:07:59.864Z,88.50
2022-08-17T16:10:35.344Z,86.70
2022-08-17T16:13:04.130Z,87.50
2022-08-17T16:15:32.106Z,87.90
2022-08-17T16:17:59.736Z,88.30
2022-08-17T16:20:26.779Z,88.90
2022-08-17T16:22:54.843Z,88.50
2022-08-17T16:25:51.963Z,89.00
2022-08-17T16:28:13.528Z,89.10
2022-08-17T16:30:41.306Z,88.30
2022-08-17T16:33:11.453Z,87.80
2022-08-17T16:35:39.007Z,87.50
2022-08-17T16:38:08.632Z,87.80
2022-08-17T16:40:36.402Z,88.50
2022-08-17T16:43:10.502Z,89.20
2022-08-17T16:45:40.643Z,89.30
2022-08-17T16:48:08.987Z,89.70
2022-08-17T16:50:36.660Z,89.80
2022-08-17T16:53:17.220Z,90.10
2022-08-17T16:55:45.664Z,90.10
2022-08-17T16:58:12.546Z,90.10
2022-08-17T17:00:39.774Z,90.00
2022-08-17T17:03:19.462Z,90.00
2022-08-17T17:05:59.068Z,90.20
2022-08-17T17:08:31.828Z,89.90
2022-08-17T17:11:09.529Z,90.10
2022-08-17T17:13:48.679Z,90.40
2022-08-17T17:16:50.019Z,90.40
2022-08-17T17:19:35.174Z,90.40
2022-08-17T17:22:24.556Z,90.40
2022-08-17T17:25:18.484Z,90.60
2022-08-17T17:28:06.197Z,90.50
2022-08-17T17:30:42.689Z,90.40
2022-08-17T17:33:17.533Z,90.50
2022-08-17T17:35:53.661Z,90.50
2022-08-17T17:38:34.625Z,90.60
2022-08-17T17:41:05.521Z,90.60
2022-08-17T17:43:39.709Z,90.70
2022-08-17T17:46:29.130Z,90.70
2022-08-17T17:49:00.172Z,91.10
2022-08-17T17:51:54.826Z,90.90
2022-08-17T17:54:46.588Z,91.10
2022-08-17T17:57:50.715Z,91.40
2022-08-17T18:00:26.111Z,91.50
2022-08-17T18:03:11.442Z,91.50
2022-08-17T18:06:21.336Z,91.50
2022-08-17T18:08:54.816Z,91.50
2022-08-17T18:11:25.012Z,91.50
2022-08-17T18:14:18.511Z,91.50
2022-08-17T18:16:46.575Z,91.70
2022-08-17T18:19:22.583Z,92.00
2022-08-17T18:22:01.348Z,91.90
2022-08-17T18:24:31.574Z,91.90
2022-08-17T18:27:01.338Z,92.00
2022-08-17T18:29:28.116Z,92.00
2022-08-17T18:32:34.385Z,92.00
2022-08-17T18:35:27.923Z,92.10
2022-08-17T18:38:20.523Z,92.30
2022-08-17T18:41:02.129Z,92.30
2022-08-17T18:43:43.848Z,92.60
2022-08-17T18:46:28.557Z,92.70
2022-08-17T18:49:24.358Z,92.70
2022-08-17T18:52:15.088Z,92.70
2022-08-17T18:55:03.851Z,92.90
2022-08-17T18:57:40.094Z,92.90
2022-08-17T19:00:29.924Z,93.00
2022-08-17T19:03:03.424Z,93.10
2022-08-17T19:05:36.809Z,93.20
2022-08-17T19:08:28.610Z,93.30
2022-08-17T19:10:55.426Z,93.40
2022-08-17T19:13:33.656Z,93.60
2022-08-17T19:16:15.429Z,93.50
2022-08-17T19:18:56.833Z,93.40
2022-08-17T19:21:32.684Z,93.40
2022-08-17T19:24:04.550Z,93.40
2022-08-17T19:26:53.539Z,93.60
2022-08-17T19:29:34.274Z,93.70
2022-08-17T19:32:01.839Z,93.80
2022-08-17T19:34:33.856Z,94.20
2022-08-17T19:37:17.587Z,94.10
2022-08-17T19:39:52.015Z,94.00
2022-08-17T19:42:41.328Z,94.00
2022-08-17T19:45:29.626Z,94.00
2022-08-17T19:48:12.809Z,94.20
2022-08-17T19:51:04.282Z,94.10
2022-08-17T19:54:04.871Z,94.20
2022-08-17T19:56:41.464Z,94.30
2022-08-17T19:59:13.999Z,94.30
2022-08-17T20:02:03.702Z,94.30
2022-08-17T20:04:31.825Z,94.50
2022-08-17T20:07:23.581Z,94.50
2022-08-17T20:09:59.680Z,94.60
2022-08-17T20:12:33.450Z,94.70
2022-08-17T20:15:22.260Z,94.80
2022-08-17T20:17:50.356Z,94.80
2022-08-17T20:20:41.718Z,94.80
2022-08-17T20:23:37.745Z,94.90
2022-08-17T20:26:19.479Z,94.90
2022-08-17T20:29:13.856Z,95.00
2022-08-17T20:31:52.382Z,95.00
2022-08-17T20:34:33.508Z,95.10
2022-08-17T20:37:09.984Z,95.20
2022-08-17T20:39:44.614Z,95.30
2022-08-17T20:42:20.491Z,95.40
2022-08-17T20:44:50.349Z,95.40
2022-08-17T20:47:34.233Z,95.50
2022-08-17T20:50:05.518Z,95.50
2022-08-17T20:53:00.104Z,95.60
2022-08-17T20:55:51.658Z,95.60
2022-08-17T20:58:29.943Z,95.70
2022-08-17T21:00:58.662Z,95.60
2022-08-17T21:03:50.198Z,95.60
2022-08-17T21:06:18.250Z,95.60
2022-08-17T21:08:53.448Z,95.90
2022-08-17T21:11:58.226Z,95.70
2022-08-17T21:14:58.693Z,95.60
2022-08-17T21:17:54.834Z,95.60
2022-08-17T21:20:27.521Z,95.80
2022-08-17T21:23:11.081Z,95.80
2022-08-17T21:26:05.604Z,95.80
2022-08-17T21:29:30.925Z,95.80
2022-08-17T21:31:59.469Z,95.90
2022-08-17T21:34:39.390Z,96.00
2022-08-17T21:37:24.118Z,96.10
2022-08-17T21:39:55.646Z,96.10
2022-08-17T21:42:31.643Z,96.10
2022-08-17T21:45:23.534Z,96.10
2022-08-17T21:48:11.015Z,96.20
2022-08-17T21:50:38.915Z,96.20
2022-08-17T21:53:06.111Z,96.20
2022-08-17T21:55:36.089Z,96.20
2022-08-17T21:58:19.168Z,96.20
2022-08-17T22:00:46.084Z,96.30
2022-08-17T22:03:24.146Z,95.90
2022-08-17T22:05:51.573Z,95.80
2022-08-17T22:08:22.416Z,96.20
2022-08-17T22:10:59.236Z,96.60
2022-08-17T22:13:29.372Z,96.90
2022-08-17T22:16:29.509Z,96.90
2022-08-17T22:18:58.916Z,97.00
2022-08-17T22:21:26.965Z,96.80
2022-08-17T22:24:04.033Z,96.80
2022-08-17T22:27:05.930Z,97.10
2022-08-17T22:29:59.406Z,97.40
2022-08-17T22:32:56.311Z,98.10
2022-08-17T22:35:39.919Z,98.80
2022-08-17T22:38:18.597Z,99.60
2022-08-17T22:40:54.540Z,99.90
2022-08-17T22:43:26.175Z,99.90
2022-08-17T22:45:59.136Z,99.90
2022-08-17T22:48:29.617Z,99.90
2022-08-17T22:51:12.535Z,99.90
2022-08-17T22:54:05.419Z,99.90
2022-08-17T22:56:51.332Z,99.90
2022-08-17T22:59:41.914Z,99.90
2022-08-17T23:02:28.612Z,99.90
2022-08-17T23:05:16.686Z,99.90
2022-08-17T23:07:46.407Z,99.90
2022-08-17T23:10:13.735Z,99.90
2022-08-17T23:12:40.663Z,99.90
2022-08-17T23:15:15.501Z,99.90
2022-08-17T23:17:42.507Z,99.90
2022-08-17T23:20:15.150Z,99.90
2022-08-17T23:22:51.871Z,99.90
2022-08-17T23:25:29.555Z,99.90
2022-08-17T23:27:58.473Z,99.90
2022-08-17T23:30:25.690Z,99.90
2022-08-17T23:32:54.349Z,99.90
2022-08-17T23:35:39.228Z,99.90
2022-08-17T23:38:10.070Z,99.90
2022-08-17T23:40:37.860Z,99.90
2022-08-17T23:43:15.376Z,99.90
2022-08-17T23:45:52.506Z,99.90
2022-08-17T23:48:35.897Z,99.90
2022-08-17T23:51:19.290Z,99.90
2022-08-17T23:53:58.195Z,99.90
2022-08-17T23:56:27.900Z,99.90
2022-08-17T23:58:55.745Z,99.90
